sensor_id;sensor_type;location;lat;lon;timestamp;temperature;humidity
13944;DHT22;7044;53.286;8.534;2024-02-26T00:02:16;3.70;99.90
13944;DHT22;7044;53.286;8.534;2024-02-26T00:04:43;3.70;99.90
13944;DHT22;7044;53.286;8.534;2024-02-26T00:07:10;3.60;99.90
13944;DHT22;7044;53.286;8.534;2024-02-26T00:09:37;3.20;99.90
13944;DHT22;7044;53.286;8.534;2024-02-26T00:12:04;3.60;99.90
13944;DHT22;7044;53.286;8.534;2024-02-26T00:14:31;3.70;99.90
13944;DHT22;7044;53.286;8.534;2024-02-26T00:16:59;3.70;99.90
13944;DHT22;7044;53.286;8.534;2024-02-26T00:19:27;3.60;99.90
13944;DHT22;7044;53.286;8.534;2024-02-26T00:21:54;3.40;99.90
13944;DHT22;7044;53.286;8.534;2024-02-26T00:24:21;3.40;99.90
13944;DHT22;7044;53.286;8.534;2024-02-26T00:26:48;3.30;99.90
13944;DHT22;7044;53.286;8.534;2024-02-26T00:29:19;3.50;99.90
13944;DHT22;7044;53.286;8.534;2024-02-26T00:34:14;3.40;99.90
13944;DHT22;7044;53.286;8.534;2024-02-26T00:36:42;3.30;99.90
13944;DHT22;7044;53.286;8.534;2024-02-26T00:39:09;1.90;99.90
13944;DHT22;7044;53.286;8.534;2024-02-26T00:41:38;3.10;99.90
13944;DHT22;7044;53.286;8.534;2024-02-26T00:44:06;3.10;99.90
13944;DHT22;7044;53.286;8.534;2024-02-26T00:46:33;2.90;99.90
13944;DHT22;7044;53.286;8.534;2024-02-26T00:49:00;2.90;99.90
13944;DHT22;7044;53.286;8.534;2024-02-26T00:51:27;3.00;99.90
13944;DHT22;7044;53.286;8.534;2024-02-26T00:53:55;2.90;99.90
13944;DHT22;7044;53.286;8.534;2024-02-26T00:56:22;2.90;99.90
13944;DHT22;7044;53.286;8.534;2024-02-26T00:58:48;2.80;99.90
13944;DHT22;7044;53.286;8.534;2024-02-26T01:01:15;2.80;99.90
13944;DHT22;7044;53.286;8.534;2024-02-26T01:03:42;2.80;99.90
13944;DHT22;7044;53.286;8.534;2024-02-26T01:06:09;2.60;99.90
13944;DHT22;7044;53.286;8.534;2024-02-26T01:08:36;2.60;99.90
13944;DHT22;7044;53.286;8.534;2024-02-26T01:11:06;2.60;99.90
13944;DHT22;7044;53.286;8.534;2024-02-26T01:13:33;2.50;99.90
13944;DHT22;7044;53.286;8.534;2024-02-26T01:18:28;2.90;99.90
13944;DHT22;7044;53.286;8.534;2024-02-26T01:23:22;3.20;99.90
13944;DHT22;7044;53.286;8.534;2024-02-26T01:25:48;2.30;99.90
13944;DHT22;7044;53.286;8.534;2024-02-26T01:28:17;2.20;99.90
13944;DHT22;7044;53.286;8.534;2024-02-26T01:30:44;2.20;99.90
13944;DHT22;7044;53.286;8.534;2024-02-26T01:35:38;2.30;99.90
13944;DHT22;7044;53.286;8.534;2024-02-26T01:38:05;2.20;99.90
13944;DHT22;7044;53.286;8.534;2024-02-26T01:40:32;2.20;99.90
13944;DHT22;7044;53.286;8.534;2024-02-26T01:42:59;2.20;99.90
13944;DHT22;7044;53.286;8.534;2024-02-26T01:45:28;2.30;99.90
13944;DHT22;7044;53.286;8.534;2024-02-26T01:47:55;3.00;99.90
13944;DHT22;7044;53.286;8.534;2024-02-26T01:50:23;2.20;99.90
13944;DHT22;7044;53.286;8.534;2024-02-26T01:52:51;2.10;99.90
13944;DHT22;7044;53.286;8.534;2024-02-26T01:55:19;2.20;99.90
13944;DHT22;7044;53.286;8.534;2024-02-26T01:57:49;2.20;99.90
13944;DHT22;7044;53.286;8.534;2024-02-26T02:00:18;2.20;99.90
13944;DHT22;7044;53.286;8.534;2024-02-26T02:02:46;2.30;99.90
13944;DHT22;7044;53.286;8.534;2024-02-26T02:05:15;2.40;99.90
13944;DHT22;7044;53.286;8.534;2024-02-26T02:07:43;2.10;99.90
13944;DHT22;7044;53.286;8.534;2024-02-26T02:10:10;2.20;99.90
13944;DHT22;7044;53.286;8.534;2024-02-26T02:12:37;2.10;99.90
13944;DHT22;7044;53.286;8.534;2024-02-26T02:15:06;2.10;99.90
13944;DHT22;7044;53.286;8.534;2024-02-26T02:17:33;2.20;99.90
13944;DHT22;7044;53.286;8.534;2024-02-26T02:20:02;2.20;99.90
13944;DHT22;7044;53.286;8.534;2024-02-26T02:22:30;2.20;99.90
13944;DHT22;7044;53.286;8.534;2024-02-26T02:24:59;2.20;99.90
13944;DHT22;7044;53.286;8.534;2024-02-26T02:27:27;2.20;99.90
13944;DHT22;7044;53.286;8.534;2024-02-26T02:29:54;2.30;99.90
13944;DHT22;7044;53.286;8.534;2024-02-26T02:32:21;2.30;99.90
13944;DHT22;7044;53.286;8.534;2024-02-26T02:34:49;2.30;99.90
13944;DHT22;7044;53.286;8.534;2024-02-26T02:37:16;2.30;99.90
13944;DHT22;7044;53.286;8.534;2024-02-26T02:39:45;2.20;99.90
13944;DHT22;7044;53.286;8.534;2024-02-26T02:42:12;2.30;99.90
13944;DHT22;7044;53.286;8.534;2024-02-26T02:44:39;2.10;99.90
13944;DHT22;7044;53.286;8.534;2024-02-26T02:47:06;1.60;99.90
13944;DHT22;7044;53.286;8.534;2024-02-26T02:49:33;2.00;99.90
13944;DHT22;7044;53.286;8.534;2024-02-26T02:51:59;1.90;99.90
13944;DHT22;7044;53.286;8.534;2024-02-26T02:54:26;2.00;99.90
13944;DHT22;7044;53.286;8.534;2024-02-26T02:56:54;2.10;99.90
13944;DHT22;7044;53.286;8.534;2024-02-26T02:59:21;1.90;99.90
13944;DHT22;7044;53.286;8.534;2024-02-26T03:01:48;2.10;99.90
13944;DHT22;7044;53.286;8.534;2024-02-26T03:04:16;1.90;99.90
13944;DHT22;7044;53.286;8.534;2024-02-26T03:06:42;1.90;99.90
13944;DHT22;7044;53.286;8.534;2024-02-26T03:09:09;2.00;99.90
13944;DHT22;7044;53.286;8.534;2024-02-26T03:14:05;1.80;99.90
13944;DHT22;7044;53.286;8.534;2024-02-26T03:16:33;1.90;99.90
13944;DHT22;7044;53.286;8.534;2024-02-26T03:19:00;2.10;99.90
13944;DHT22;7044;53.286;8.534;2024-02-26T03:21:27;2.10;99.90
13944;DHT22;7044;53.286;8.534;2024-02-26T03:23:54;2.00;99.90
13944;DHT22;7044;53.286;8.534;2024-02-26T03:26:21;2.20;99.90
13944;DHT22;7044;53.286;8.534;2024-02-26T03:28:48;2.20;99.90
13944;DHT22;7044;53.286;8.534;2024-02-26T03:31:16;2.20;99.90
13944;DHT22;7044;53.286;8.534;2024-02-26T03:36:10;2.20;99.90
13944;DHT22;7044;53.286;8.534;2024-02-26T03:38:37;1.90;99.90
13944;DHT22;7044;53.286;8.534;2024-02-26T03:41:04;2.00;99.90
13944;DHT22;7044;53.286;8.534;2024-02-26T03:43:31;1.90;99.90
13944;DHT22;7044;53.286;8.534;2024-02-26T03:45:58;2.00;99.90
13944;DHT22;7044;53.286;8.534;2024-02-26T03:48:27;2.00;99.90
13944;DHT22;7044;53.286;8.534;2024-02-26T03:50:53;2.10;99.90
13944;DHT22;7044;53.286;8.534;2024-02-26T03:55:47;2.20;99.90
13944;DHT22;7044;53.286;8.534;2024-02-26T03:58:14;2.30;99.90
13944;DHT22;7044;53.286;8.534;2024-02-26T04:00:42;2.40;99.90
13944;DHT22;7044;53.286;8.534;2024-02-26T04:03:09;2.10;99.90
13944;DHT22;7044;53.286;8.534;2024-02-26T04:05:37;1.90;99.90
13944;DHT22;7044;53.286;8.534;2024-02-26T04:08:05;2.10;99.90
13944;DHT22;7044;53.286;8.534;2024-02-26T04:10:32;2.00;99.90
13944;DHT22;7044;53.286;8.534;2024-02-26T04:13:00;2.00;99.90
13944;DHT22;7044;53.286;8.534;2024-02-26T04:15:27;2.10;99.90
13944;DHT22;7044;53.286;8.534;2024-02-26T04:17:54;2.00;99.90
13944;DHT22;7044;53.286;8.534;2024-02-26T04:20:21;2.30;99.90
13944;DHT22;7044;53.286;8.534;2024-02-26T04:22:49;2.20;99.90
13944;DHT22;7044;53.286;8.534;2024-02-26T04:25:16;2.30;99.90
13944;DHT22;7044;53.286;8.534;2024-02-26T04:27:43;2.40;99.90
13944;DHT22;7044;53.286;8.534;2024-02-26T04:30:11;2.40;99.90
13944;DHT22;7044;53.286;8.534;2024-02-26T04:32:38;2.60;99.90
13944;DHT22;7044;53.286;8.534;2024-02-26T04:35:05;2.60;99.90
13944;DHT22;7044;53.286;8.534;2024-02-26T04:37:32;2.70;99.90
13944;DHT22;7044;53.286;8.534;2024-02-26T04:40:00;2.70;99.90
13944;DHT22;7044;53.286;8.534;2024-02-26T04:42:28;2.70;99.90
13944;DHT22;7044;53.286;8.534;2024-02-26T04:44:55;2.70;99.90
13944;DHT22;7044;53.286;8.534;2024-02-26T04:49:49;2.70;99.90
13944;DHT22;7044;53.286;8.534;2024-02-26T04:52:16;2.70;99.90
13944;DHT22;7044;53.286;8.534;2024-02-26T04:57:12;2.70;99.90
13944;DHT22;7044;53.286;8.534;2024-02-26T04:59:39;2.70;99.90
13944;DHT22;7044;53.286;8.534;2024-02-26T05:02:06;2.80;99.90
13944;DHT22;7044;53.286;8.534;2024-02-26T05:04:33;3.20;99.90
13944;DHT22;7044;53.286;8.534;2024-02-26T05:07:00;2.20;99.90
13944;DHT22;7044;53.286;8.534;2024-02-26T05:11:54;2.90;99.90
13944;DHT22;7044;53.286;8.534;2024-02-26T05:14:22;2.80;99.90
13944;DHT22;7044;53.286;8.534;2024-02-26T05:16:49;2.80;99.90
13944;DHT22;7044;53.286;8.534;2024-02-26T05:19:16;2.70;99.90
13944;DHT22;7044;53.286;8.534;2024-02-26T05:21:43;2.80;99.90
13944;DHT22;7044;53.286;8.534;2024-02-26T05:24:10;2.80;99.90
13944;DHT22;7044;53.286;8.534;2024-02-26T05:29:04;3.70;99.90
13944;DHT22;7044;53.286;8.534;2024-02-26T05:31:32;2.70;99.90
13944;DHT22;7044;53.286;8.534;2024-02-26T05:33:59;2.80;99.90
13944;DHT22;7044;53.286;8.534;2024-02-26T05:38:58;2.90;99.90
13944;DHT22;7044;53.286;8.534;2024-02-26T05:41:25;2.70;99.90
13944;DHT22;7044;53.286;8.534;2024-02-26T05:43:52;2.70;99.90
13944;DHT22;7044;53.286;8.534;2024-02-26T05:46:20;2.70;99.90
13944;DHT22;7044;53.286;8.534;2024-02-26T05:48:53;2.60;99.90
13944;DHT22;7044;53.286;8.534;2024-02-26T05:51:20;2.60;99.90
13944;DHT22;7044;53.286;8.534;2024-02-26T05:53:47;2.50;99.90
13944;DHT22;7044;53.286;8.534;2024-02-26T05:56:19;2.50;99.90
13944;DHT22;7044;53.286;8.534;2024-02-26T05:58:46;2.60;99.90
13944;DHT22;7044;53.286;8.534;2024-02-26T06:01:14;3.20;99.90
13944;DHT22;7044;53.286;8.534;2024-02-26T06:03:41;2.60;99.90
13944;DHT22;7044;53.286;8.534;2024-02-26T06:06:10;2.60;99.90
13944;DHT22;7044;53.286;8.534;2024-02-26T06:08:36;2.60;99.90
13944;DHT22;7044;53.286;8.534;2024-02-26T06:11:05;2.60;99.90
13944;DHT22;7044;53.286;8.534;2024-02-26T06:13:32;2.60;99.90
13944;DHT22;7044;53.286;8.534;2024-02-26T06:15:59;2.40;99.90
13944;DHT22;7044;53.286;8.534;2024-02-26T06:18:26;2.50;99.90
13944;DHT22;7044;53.286;8.534;2024-02-26T06:23:21;2.40;99.90
13944;DHT22;7044;53.286;8.534;2024-02-26T06:25:48;2.40;99.90
13944;DHT22;7044;53.286;8.534;2024-02-26T06:28:15;2.30;99.90
13944;DHT22;7044;53.286;8.534;2024-02-26T06:30:42;2.30;99.90
13944;DHT22;7044;53.286;8.534;2024-02-26T06:33:09;2.30;99.90
13944;DHT22;7044;53.286;8.534;2024-02-26T06:35:36;2.30;99.90
13944;DHT22;7044;53.286;8.534;2024-02-26T06:38:03;2.30;99.90
13944;DHT22;7044;53.286;8.534;2024-02-26T06:40:31;2.50;99.90
13944;DHT22;7044;53.286;8.534;2024-02-26T06:45:25;2.40;99.90
13944;DHT22;7044;53.286;8.534;2024-02-26T06:47:52;2.40;99.90
13944;DHT22;7044;53.286;8.534;2024-02-26T06:50:21;2.50;99.90
13944;DHT22;7044;53.286;8.534;2024-02-26T06:52:48;2.50;99.90
13944;DHT22;7044;53.286;8.534;2024-02-26T06:55:15;2.50;99.90
13944;DHT22;7044;53.286;8.534;2024-02-26T06:57:43;2.60;99.90
13944;DHT22;7044;53.286;8.534;2024-02-26T07:00:11;2.50;99.90
13944;DHT22;7044;53.286;8.534;2024-02-26T07:05:08;2.60;99.90
13944;DHT22;7044;53.286;8.534;2024-02-26T07:07:35;2.60;99.90
13944;DHT22;7044;53.286;8.534;2024-02-26T07:10:02;2.50;99.90
13944;DHT22;7044;53.286;8.534;2024-02-26T07:12:31;3.00;99.90
13944;DHT22;7044;53.286;8.534;2024-02-26T07:15:00;2.50;99.90
13944;DHT22;7044;53.286;8.534;2024-02-26T07:17:28;2.60;99.90
13944;DHT22;7044;53.286;8.534;2024-02-26T07:19:55;3.00;99.90
13944;DHT22;7044;53.286;8.534;2024-02-26T07:22:22;2.70;99.90
13944;DHT22;7044;53.286;8.534;2024-02-26T07:24:49;2.60;99.90
13944;DHT22;7044;53.286;8.534;2024-02-26T07:27:17;2.80;99.90
13944;DHT22;7044;53.286;8.534;2024-02-26T07:29:44;2.80;99.90
13944;DHT22;7044;53.286;8.534;2024-02-26T07:32:13;2.80;99.90
13944;DHT22;7044;53.286;8.534;2024-02-26T07:34:41;2.90;99.90
13944;DHT22;7044;53.286;8.534;2024-02-26T07:37:10;2.90;99.90
13944;DHT22;7044;53.286;8.534;2024-02-26T07:39:37;3.00;99.90
13944;DHT22;7044;53.286;8.534;2024-02-26T07:42:04;3.00;99.90
13944;DHT22;7044;53.286;8.534;2024-02-26T07:44:32;3.00;99.90
13944;DHT22;7044;53.286;8.534;2024-02-26T07:46:59;3.00;99.90
13944;DHT22;7044;53.286;8.534;2024-02-26T07:49:27;3.00;99.90
13944;DHT22;7044;53.286;8.534;2024-02-26T07:51:54;3.10;99.90
13944;DHT22;7044;53.286;8.534;2024-02-26T07:54:23;3.20;99.90
13944;DHT22;7044;53.286;8.534;2024-02-26T07:56:50;3.30;99.90
13944;DHT22;7044;53.286;8.534;2024-02-26T07:59:17;3.40;99.90
13944;DHT22;7044;53.286;8.534;2024-02-26T08:01:44;3.30;99.90
13944;DHT22;7044;53.286;8.534;2024-02-26T08:04:11;2.70;99.90
13944;DHT22;7044;53.286;8.534;2024-02-26T08:06:39;3.40;99.90
13944;DHT22;7044;53.286;8.534;2024-02-26T08:09:06;3.30;99.90
13944;DHT22;7044;53.286;8.534;2024-02-26T08:11:33;4.90;99.90
13944;DHT22;7044;53.286;8.534;2024-02-26T08:14:00;3.40;99.90
13944;DHT22;7044;53.286;8.534;2024-02-26T08:16:27;3.80;99.90
13944;DHT22;7044;53.286;8.534;2024-02-26T08:18:54;3.50;99.90
13944;DHT22;7044;53.286;8.534;2024-02-26T08:21:21;3.40;99.90
13944;DHT22;7044;53.286;8.534;2024-02-26T08:23:49;3.50;99.90
13944;DHT22;7044;53.286;8.534;2024-02-26T08:26:16;3.50;99.90
13944;DHT22;7044;53.286;8.534;2024-02-26T08:31:14;4.20;99.90
13944;DHT22;7044;53.286;8.534;2024-02-26T08:33:41;3.60;99.90
13944;DHT22;7044;53.286;8.534;2024-02-26T08:36:09;4.40;99.90
13944;DHT22;7044;53.286;8.534;2024-02-26T08:38:36;4.30;99.90
13944;DHT22;7044;53.286;8.534;2024-02-26T08:41:04;3.40;99.90
13944;DHT22;7044;53.286;8.534;2024-02-26T08:43:31;3.70;99.90
13944;DHT22;7044;53.286;8.534;2024-02-26T08:45:58;3.70;99.90
13944;DHT22;7044;53.286;8.534;2024-02-26T08:48:25;4.10;99.90
13944;DHT22;7044;53.286;8.534;2024-02-26T08:50:52;3.70;99.90
13944;DHT22;7044;53.286;8.534;2024-02-26T08:53:20;3.70;99.90
13944;DHT22;7044;53.286;8.534;2024-02-26T08:55:47;3.80;99.90
13944;DHT22;7044;53.286;8.534;2024-02-26T08:58:15;3.60;99.90
13944;DHT22;7044;53.286;8.534;2024-02-26T09:00:42;3.80;99.90
13944;DHT22;7044;53.286;8.534;2024-02-26T09:03:09;4.70;99.90
13944;DHT22;7044;53.286;8.534;2024-02-26T09:05:35;4.50;99.90
13944;DHT22;7044;53.286;8.534;2024-02-26T09:08:03;3.80;99.90
13944;DHT22;7044;53.286;8.534;2024-02-26T09:10:30;3.90;99.90
13944;DHT22;7044;53.286;8.534;2024-02-26T09:12:57;3.90;99.90
13944;DHT22;7044;53.286;8.534;2024-02-26T09:15:25;3.90;99.90
13944;DHT22;7044;53.286;8.534;2024-02-26T09:17:52;3.90;99.90
13944;DHT22;7044;53.286;8.534;2024-02-26T09:20:19;4.20;99.90
13944;DHT22;7044;53.286;8.534;2024-02-26T09:22:47;4.00;99.90
13944;DHT22;7044;53.286;8.534;2024-02-26T09:25:14;4.10;99.90
13944;DHT22;7044;53.286;8.534;2024-02-26T09:27:42;4.10;99.90
13944;DHT22;7044;53.286;8.534;2024-02-26T09:30:10;4.10;99.90
13944;DHT22;7044;53.286;8.534;2024-02-26T09:32:39;4.20;99.90
13944;DHT22;7044;53.286;8.534;2024-02-26T09:35:06;4.30;99.90
13944;DHT22;7044;53.286;8.534;2024-02-26T09:37:33;4.30;99.90
13944;DHT22;7044;53.286;8.534;2024-02-26T09:40:03;4.30;99.90
13944;DHT22;7044;53.286;8.534;2024-02-26T09:42:32;4.30;99.90
13944;DHT22;7044;53.286;8.534;2024-02-26T09:45:00;4.40;99.90
13944;DHT22;7044;53.286;8.534;2024-02-26T09:47:31;4.40;99.90
13944;DHT22;7044;53.286;8.534;2024-02-26T09:50:00;4.40;99.90
13944;DHT22;7044;53.286;8.534;2024-02-26T09:52:28;4.50;99.90
13944;DHT22;7044;53.286;8.534;2024-02-26T09:54:57;4.40;99.90
13944;DHT22;7044;53.286;8.534;2024-02-26T09:57:25;4.20;99.90
13944;DHT22;7044;53.286;8.534;2024-02-26T09:59:53;4.50;99.90
13944;DHT22;7044;53.286;8.534;2024-02-26T10:02:23;4.80;99.90
13944;DHT22;7044;53.286;8.534;2024-02-26T10:04:50;3.90;99.90
13944;DHT22;7044;53.286;8.534;2024-02-26T10:07:21;4.70;99.90
13944;DHT22;7044;53.286;8.534;2024-02-26T10:09:47;4.80;99.90
13944;DHT22;7044;53.286;8.534;2024-02-26T10:14:42;4.80;99.90
13944;DHT22;7044;53.286;8.534;2024-02-26T10:17:10;3.60;99.90
13944;DHT22;7044;53.286;8.534;2024-02-26T10:19:37;4.90;99.90
13944;DHT22;7044;53.286;8.534;2024-02-26T10:22:04;5.00;99.90
13944;DHT22;7044;53.286;8.534;2024-02-26T10:24:33;5.10;99.90
13944;DHT22;7044;53.286;8.534;2024-02-26T10:27:00;5.10;99.90
13944;DHT22;7044;53.286;8.534;2024-02-26T10:29:28;5.20;99.90
13944;DHT22;7044;53.286;8.534;2024-02-26T10:31:56;5.20;99.90
13944;DHT22;7044;53.286;8.534;2024-02-26T10:34:23;5.20;99.90
13944;DHT22;7044;53.286;8.534;2024-02-26T10:36:51;5.30;99.90
13944;DHT22;7044;53.286;8.534;2024-02-26T10:39:18;5.50;99.90
13944;DHT22;7044;53.286;8.534;2024-02-26T10:41:46;5.30;99.90
13944;DHT22;7044;53.286;8.534;2024-02-26T10:46:40;5.30;99.90
13944;DHT22;7044;53.286;8.534;2024-02-26T10:49:13;5.40;99.90
13944;DHT22;7044;53.286;8.534;2024-02-26T10:51:44;5.40;99.90
13944;DHT22;7044;53.286;8.534;2024-02-26T10:54:12;5.40;99.90
13944;DHT22;7044;53.286;8.534;2024-02-26T10:56:42;5.80;99.90
13944;DHT22;7044;53.286;8.534;2024-02-26T10:59:11;4.70;99.90
13944;DHT22;7044;53.286;8.534;2024-02-26T11:01:39;5.50;99.90
13944;DHT22;7044;53.286;8.534;2024-02-26T11:04:07;5.40;99.90
13944;DHT22;7044;53.286;8.534;2024-02-26T11:09:02;5.50;99.90
13944;DHT22;7044;53.286;8.534;2024-02-26T11:11:31;5.50;99.90
13944;DHT22;7044;53.286;8.534;2024-02-26T11:14:01;5.50;99.90
13944;DHT22;7044;53.286;8.534;2024-02-26T11:16:31;5.50;99.90
13944;DHT22;7044;53.286;8.534;2024-02-26T11:19:02;5.40;99.90
13944;DHT22;7044;53.286;8.534;2024-02-26T11:21:30;5.60;99.90
13944;DHT22;7044;53.286;8.534;2024-02-26T11:24:07;5.60;99.90
13944;DHT22;7044;53.286;8.534;2024-02-26T11:26:36;5.40;99.90
13944;DHT22;7044;53.286;8.534;2024-02-26T11:29:07;5.60;99.90
13944;DHT22;7044;53.286;8.534;2024-02-26T11:31:37;5.70;99.90
13944;DHT22;7044;53.286;8.534;2024-02-26T11:34:06;5.70;99.90
13944;DHT22;7044;53.286;8.534;2024-02-26T11:36:34;5.80;99.90
13944;DHT22;7044;53.286;8.534;2024-02-26T11:39:01;5.90;99.90
13944;DHT22;7044;53.286;8.534;2024-02-26T11:41:28;5.90;99.90
13944;DHT22;7044;53.286;8.534;2024-02-26T11:43:58;6.00;99.90
13944;DHT22;7044;53.286;8.534;2024-02-26T11:46:27;6.00;99.90
13944;DHT22;7044;53.286;8.534;2024-02-26T11:48:56;6.00;99.90
13944;DHT22;7044;53.286;8.534;2024-02-26T11:51:28;5.90;99.90
13944;DHT22;7044;53.286;8.534;2024-02-26T11:53:58;6.00;99.90
13944;DHT22;7044;53.286;8.534;2024-02-26T11:56:25;6.00;99.90
13944;DHT22;7044;53.286;8.534;2024-02-26T11:58:57;6.10;99.90
13944;DHT22;7044;53.286;8.534;2024-02-26T12:01:38;6.10;99.90
13944;DHT22;7044;53.286;8.534;2024-02-26T12:04:07;6.10;99.90
13944;DHT22;7044;53.286;8.534;2024-02-26T12:06:44;5.60;99.90
13944;DHT22;7044;53.286;8.534;2024-02-26T12:09:12;6.30;99.90
13944;DHT22;7044;53.286;8.534;2024-02-26T12:11:40;6.10;99.90
13944;DHT22;7044;53.286;8.534;2024-02-26T12:14:09;6.10;99.90
13944;DHT22;7044;53.286;8.534;2024-02-26T12:16:37;6.20;99.90
13944;DHT22;7044;53.286;8.534;2024-02-26T12:19:07;6.00;99.90
13944;DHT22;7044;53.286;8.534;2024-02-26T12:21:35;6.20;99.90
13944;DHT22;7044;53.286;8.534;2024-02-26T12:24:13;6.20;99.90
13944;DHT22;7044;53.286;8.534;2024-02-26T12:26:41;6.20;99.90
13944;DHT22;7044;53.286;8.534;2024-02-26T12:31:37;6.20;99.90
13944;DHT22;7044;53.286;8.534;2024-02-26T12:34:06;6.20;99.90
13944;DHT22;7044;53.286;8.534;2024-02-26T12:36:35;6.30;99.90
13944;DHT22;7044;53.286;8.534;2024-02-26T12:39:02;6.30;99.90
13944;DHT22;7044;53.286;8.534;2024-02-26T12:41:31;6.30;99.90
13944;DHT22;7044;53.286;8.534;2024-02-26T12:43:59;6.30;99.90
13944;DHT22;7044;53.286;8.534;2024-02-26T12:46:26;6.30;99.90
13944;DHT22;7044;53.286;8.534;2024-02-26T12:48:56;6.30;99.90
13944;DHT22;7044;53.286;8.534;2024-02-26T12:51:25;6.30;99.90
13944;DHT22;7044;53.286;8.534;2024-02-26T12:53:53;6.40;99.90
13944;DHT22;7044;53.286;8.534;2024-02-26T12:56:21;5.60;99.90
13944;DHT22;7044;53.286;8.534;2024-02-26T12:58:50;6.40;99.90
13944;DHT22;7044;53.286;8.534;2024-02-26T13:01:22;6.50;99.90
13944;DHT22;7044;53.286;8.534;2024-02-26T13:03:50;6.60;99.90
13944;DHT22;7044;53.286;8.534;2024-02-26T13:06:17;6.30;99.90
13944;DHT22;7044;53.286;8.534;2024-02-26T13:08:46;6.60;99.90
13944;DHT22;7044;53.286;8.534;2024-02-26T13:11:13;6.50;99.90
13944;DHT22;7044;53.286;8.534;2024-02-26T13:13:40;6.50;99.90
13944;DHT22;7044;53.286;8.534;2024-02-26T13:16:09;6.50;99.90
13944;DHT22;7044;53.286;8.534;2024-02-26T13:18:36;6.40;99.90
13944;DHT22;7044;53.286;8.534;2024-02-26T13:21:11;6.50;99.90
13944;DHT22;7044;53.286;8.534;2024-02-26T13:23:38;7.00;99.90
13944;DHT22;7044;53.286;8.534;2024-02-26T13:26:07;6.40;99.90
13944;DHT22;7044;53.286;8.534;2024-02-26T13:28:35;6.70;99.90
13944;DHT22;7044;53.286;8.534;2024-02-26T13:31:02;6.40;99.90
13944;DHT22;7044;53.286;8.534;2024-02-26T13:33:30;7.00;99.90
13944;DHT22;7044;53.286;8.534;2024-02-26T13:35:58;6.40;99.90
13944;DHT22;7044;53.286;8.534;2024-02-26T13:38:25;6.40;99.90
13944;DHT22;7044;53.286;8.534;2024-02-26T13:40:53;6.30;99.90
13944;DHT22;7044;53.286;8.534;2024-02-26T13:43:21;6.50;99.90
13944;DHT22;7044;53.286;8.534;2024-02-26T13:45:48;6.50;99.90
13944;DHT22;7044;53.286;8.534;2024-02-26T13:48:15;6.50;99.90
13944;DHT22;7044;53.286;8.534;2024-02-26T13:50:43;6.40;99.90
13944;DHT22;7044;53.286;8.534;2024-02-26T13:55:38;6.50;99.90
13944;DHT22;7044;53.286;8.534;2024-02-26T13:58:08;6.40;99.90
13944;DHT22;7044;53.286;8.534;2024-02-26T14:00:39;6.80;99.90
13944;DHT22;7044;53.286;8.534;2024-02-26T14:03:07;6.30;99.90
13944;DHT22;7044;53.286;8.534;2024-02-26T14:05:34;6.50;99.90
13944;DHT22;7044;53.286;8.534;2024-02-26T14:08:01;6.40;99.90
13944;DHT22;7044;53.286;8.534;2024-02-26T14:10:28;6.60;99.90
13944;DHT22;7044;53.286;8.534;2024-02-26T14:12:55;6.30;99.90
13944;DHT22;7044;53.286;8.534;2024-02-26T14:17:52;6.40;99.90
13944;DHT22;7044;53.286;8.534;2024-02-26T14:20:21;6.40;99.90
13944;DHT22;7044;53.286;8.534;2024-02-26T14:22:49;6.40;99.90
13944;DHT22;7044;53.286;8.534;2024-02-26T14:25:15;6.10;99.90
13944;DHT22;7044;53.286;8.534;2024-02-26T14:27:42;6.40;99.90
13944;DHT22;7044;53.286;8.534;2024-02-26T14:30:09;6.90;99.90
13944;DHT22;7044;53.286;8.534;2024-02-26T14:32:36;6.40;99.90
13944;DHT22;7044;53.286;8.534;2024-02-26T14:35:06;7.60;99.90
13944;DHT22;7044;53.286;8.534;2024-02-26T14:37:34;6.50;99.90
13944;DHT22;7044;53.286;8.534;2024-02-26T14:40:01;6.30;99.90
13944;DHT22;7044;53.286;8.534;2024-02-26T14:42:29;6.50;99.90
13944;DHT22;7044;53.286;8.534;2024-02-26T14:44:56;6.40;99.90
13944;DHT22;7044;53.286;8.534;2024-02-26T14:47:22;6.60;99.90
13944;DHT22;7044;53.286;8.534;2024-02-26T14:49:49;6.50;99.90
13944;DHT22;7044;53.286;8.534;2024-02-26T14:52:18;6.60;99.90
13944;DHT22;7044;53.286;8.534;2024-02-26T14:54:45;6.70;99.90
13944;DHT22;7044;53.286;8.534;2024-02-26T14:57:12;6.60;99.90
13944;DHT22;7044;53.286;8.534;2024-02-26T15:02:07;6.40;99.90
13944;DHT22;7044;53.286;8.534;2024-02-26T15:04:36;6.40;99.90
13944;DHT22;7044;53.286;8.534;2024-02-26T15:07:03;6.30;99.90
13944;DHT22;7044;53.286;8.534;2024-02-26T15:09:31;6.40;99.90
13944;DHT22;7044;53.286;8.534;2024-02-26T15:12:01;6.30;99.90
13944;DHT22;7044;53.286;8.534;2024-02-26T15:14:28;6.30;99.90
13944;DHT22;7044;53.286;8.534;2024-02-26T15:16:55;6.30;99.90
13944;DHT22;7044;53.286;8.534;2024-02-26T15:19:22;6.20;99.90
13944;DHT22;7044;53.286;8.534;2024-02-26T15:21:49;6.20;99.90
13944;DHT22;7044;53.286;8.534;2024-02-26T15:24:16;6.90;99.90
13944;DHT22;7044;53.286;8.534;2024-02-26T15:26:44;6.20;99.90
13944;DHT22;7044;53.286;8.534;2024-02-26T15:29:11;6.10;99.90
13944;DHT22;7044;53.286;8.534;2024-02-26T15:31:39;6.20;99.90
13944;DHT22;7044;53.286;8.534;2024-02-26T15:34:05;6.10;99.90
13944;DHT22;7044;53.286;8.534;2024-02-26T15:36:34;6.10;99.90
13944;DHT22;7044;53.286;8.534;2024-02-26T15:39:01;6.10;99.90
13944;DHT22;7044;53.286;8.534;2024-02-26T15:41:28;6.00;99.90
13944;DHT22;7044;53.286;8.534;2024-02-26T15:43:57;6.00;99.90
13944;DHT22;7044;53.286;8.534;2024-02-26T15:46:26;5.90;99.90
13944;DHT22;7044;53.286;8.534;2024-02-26T15:48:52;5.90;99.90
13944;DHT22;7044;53.286;8.534;2024-02-26T15:51:20;5.90;99.90
13944;DHT22;7044;53.286;8.534;2024-02-26T15:53:47;5.90;99.90
13944;DHT22;7044;53.286;8.534;2024-02-26T15:58:42;5.90;99.90
13944;DHT22;7044;53.286;8.534;2024-02-26T16:01:10;5.80;99.90
13944;DHT22;7044;53.286;8.534;2024-02-26T16:03:38;5.80;99.90
13944;DHT22;7044;53.286;8.534;2024-02-26T16:06:06;5.80;99.90
13944;DHT22;7044;53.286;8.534;2024-02-26T16:08:33;5.70;99.90
13944;DHT22;7044;53.286;8.534;2024-02-26T16:11:00;5.70;99.90
13944;DHT22;7044;53.286;8.534;2024-02-26T16:13:27;5.70;99.90
13944;DHT22;7044;53.286;8.534;2024-02-26T16:15:58;5.70;99.90
13944;DHT22;7044;53.286;8.534;2024-02-26T16:18:27;6.10;99.90
13944;DHT22;7044;53.286;8.534;2024-02-26T16:20:54;5.70;99.90
13944;DHT22;7044;53.286;8.534;2024-02-26T16:23:22;6.30;99.90
13944;DHT22;7044;53.286;8.534;2024-02-26T16:25:49;5.60;99.90
13944;DHT22;7044;53.286;8.534;2024-02-26T16:28:16;5.60;99.90
13944;DHT22;7044;53.286;8.534;2024-02-26T16:30:43;5.50;99.90
13944;DHT22;7044;53.286;8.534;2024-02-26T16:35:38;5.50;99.90
13944;DHT22;7044;53.286;8.534;2024-02-26T16:38:05;5.50;99.90
13944;DHT22;7044;53.286;8.534;2024-02-26T16:40:32;5.50;99.90
13944;DHT22;7044;53.286;8.534;2024-02-26T16:45:26;5.40;99.90
13944;DHT22;7044;53.286;8.534;2024-02-26T16:47:54;5.40;99.90
13944;DHT22;7044;53.286;8.534;2024-02-26T16:50:21;5.30;99.90
13944;DHT22;7044;53.286;8.534;2024-02-26T16:52:49;5.30;99.90
13944;DHT22;7044;53.286;8.534;2024-02-26T16:55:16;5.20;99.90
13944;DHT22;7044;53.286;8.534;2024-02-26T16:57:43;5.30;99.90
13944;DHT22;7044;53.286;8.534;2024-02-26T17:00:11;5.90;99.90
13944;DHT22;7044;53.286;8.534;2024-02-26T17:02:41;5.10;99.90
13944;DHT22;7044;53.286;8.534;2024-02-26T17:05:08;5.30;99.90
13944;DHT22;7044;53.286;8.534;2024-02-26T17:07:35;5.20;99.90
13944;DHT22;7044;53.286;8.534;2024-02-26T17:10:04;5.20;99.90